createdAt,value
2019-04-23T00:00:17.080Z,4.10
2019-04-23T00:02:54.998Z,7.03
2019-04-23T00:05:35.320Z,4.53
2019-04-23T00:08:09.676Z,4.90
2019-04-23T00:10:30.411Z,5.22
2019-04-23T00:12:55.673Z,4.45
2019-04-23T00:15:24.008Z,5.85
2019-04-23T00:17:55.519Z,5.40
2019-04-23T00:20:22.016Z,5.03
2019-04-23T00:23:18.929Z,6.10
2019-04-23T00:25:51.087Z,6.85
2019-04-23T00:28:24.453Z,4.47
2019-04-23T00:30:49.656Z,6.10
2019-04-23T00:33:21.872Z,5.75
2019-04-23T00:35:48.646Z,7.37
2019-04-23T00:38:18.227Z,7.03
2019-04-23T00:40:46.252Z,5.37
2019-04-23T00:48:22.976Z,6.92
2019-04-23T00:50:49.234Z,6.25
2019-04-23T00:55:47.615Z,6.22
2019-04-23T00:58:29.112Z,6.67
2019-04-23T01:03:20.096Z,6.85
2019-04-23T01:05:46.659Z,5.17
2019-04-23T01:10:58.333Z,7.10
2019-04-23T01:16:03.888Z,7.10
2019-04-23T01:18:45.222Z,6.55
2019-04-23T01:20:53.771Z,6.40
2019-04-23T01:23:36.457Z,4.97
2019-04-23T01:26:21.003Z,7.05
2019-04-23T01:28:57.396Z,6.28
2019-04-23T01:31:31.117Z,5.37
2019-04-23T01:33:59.037Z,5.70
2019-04-23T01:36:29.721Z,6.75
2019-04-23T01:39:00.268Z,4.42
2019-04-23T01:41:26.760Z,5.75
2019-04-23T01:43:53.493Z,6.95
2019-04-23T01:46:29.201Z,6.20
2019-04-23T01:49:02.113Z,5.30
2019-04-23T01:51:36.321Z,9.78
2019-04-23T01:54:00.282Z,6.87
2019-04-23T01:56:30.786Z,6.62
2019-04-23T02:01:31.722Z,8.75
2019-04-23T02:04:03.659Z,6.75
2019-04-23T02:06:33.156Z,8.38
2019-04-23T02:11:35.709Z,9.48
2019-04-23T02:14:03.193Z,6.00
2019-04-23T02:19:08.149Z,7.15
2019-04-23T02:21:35.134Z,7.80
2019-04-23T02:24:12.679Z,7.05
2019-04-23T02:26:36.807Z,5.78
2019-04-23T02:31:52.769Z,6.78
2019-04-23T02:34:29.233Z,8.03
2019-04-23T02:36:47.429Z,7.85
2019-04-23T02:39:13.112Z,9.58
2019-04-23T02:41:54.399Z,9.60
2019-04-23T02:44:19.817Z,7.95
2019-04-23T02:46:54.079Z,4.83
2019-04-23T02:49:22.117Z,6.62
2019-04-23T02:51:54.598Z,7.55
2019-04-23T02:54:26.799Z,10.53
2019-04-23T02:56:51.456Z,8.60
2019-04-23T02:59:30.119Z,7.67
2019-04-23T03:01:41.903Z,8.55
2019-04-23T03:06:56.070Z,8.30
2019-04-23T03:09:20.957Z,6.28
2019-04-23T03:11:52.428Z,6.45
2019-04-23T03:14:16.228Z,7.65
2019-04-23T03:17:00.295Z,8.95
2019-04-23T03:19:47.239Z,7.00
2019-04-23T03:22:55.922Z,6.17
2019-04-23T03:27:56.108Z,8.40
2019-04-23T03:32:31.815Z,8.63
2019-04-23T03:41:10.754Z,12.00
2019-04-23T03:43:41.548Z,8.18
2019-04-23T03:46:11.583Z,7.65
2019-04-23T03:50:45.278Z,7.30
2019-04-23T03:53:38.765Z,7.92
2019-04-23T03:58:34.264Z,9.48
2019-04-23T04:00:58.841Z,8.28
2019-04-23T04:03:54.367Z,8.78
2019-04-23T04:06:05.348Z,9.88
2019-04-23T04:11:02.528Z,10.78
2019-04-23T04:13:31.015Z,8.25
2019-04-23T04:16:11.945Z,8.68
2019-04-23T04:19:16.587Z,8.08
2019-04-23T04:21:08.743Z,7.20
2019-04-23T04:23:40.445Z,8.70
2019-04-23T04:28:39.035Z,8.23
2019-04-23T04:33:58.526Z,10.75
2019-04-23T04:36:14.249Z,8.90
2019-04-23T04:51:29.404Z,8.43
2019-04-23T04:56:14.565Z,10.30
2019-04-23T04:58:47.501Z,9.40
2019-04-23T05:01:20.328Z,9.88
2019-04-23T05:06:21.177Z,8.90
2019-04-23T05:08:44.164Z,8.68
2019-04-23T05:16:07.748Z,8.48
2019-04-23T05:18:53.640Z,9.03
2019-04-23T05:21:21.412Z,7.80
2019-04-23T05:23:42.861Z,8.43
2019-04-23T05:26:23.971Z,13.35
2019-04-23T05:28:55.617Z,11.65
2019-04-23T05:33:47.880Z,9.15
2019-04-23T05:43:51.081Z,10.65
2019-04-23T05:46:31.861Z,11.50
2019-04-23T05:48:52.972Z,10.00
2019-04-23T05:51:17.925Z,12.35
2019-04-23T05:53:50.961Z,9.05
2019-04-23T05:56:32.422Z,10.03
2019-04-23T05:58:52.190Z,9.08
2019-04-23T06:06:55.757Z,10.35
2019-04-23T06:09:10.903Z,13.98
2019-04-23T06:11:45.719Z,10.00
2019-04-23T06:14:05.343Z,9.73
2019-04-23T06:16:39.069Z,9.88
2019-04-23T06:19:08.053Z,14.78
2019-04-23T06:21:44.745Z,11.50
2019-04-23T06:24:10.026Z,11.05
2019-04-23T06:26:40.145Z,9.53
2019-04-23T06:29:17.016Z,10.25
2019-04-23T06:31:40.739Z,9.40
2019-04-23T06:34:12.059Z,11.10
2019-04-23T06:36:40.211Z,10.78
2019-04-23T06:39:01.236Z,9.10
2019-04-23T06:41:37.531Z,11.03
2019-04-23T06:44:32.757Z,10.53
2019-04-23T06:47:03.564Z,9.90
2019-04-23T06:49:31.562Z,12.63
2019-04-23T06:54:35.889Z,10.30
2019-04-23T06:57:06.526Z,11.93
2019-04-23T06:59:47.112Z,11.10
2019-04-23T07:04:36.264Z,12.55
2019-04-23T07:07:23.882Z,9.13
2019-04-23T07:09:35.253Z,10.65
2019-04-23T07:12:02.431Z,10.53
2019-04-23T07:14:38.679Z,10.85
2019-04-23T07:16:58.514Z,10.85
2019-04-23T07:22:06.365Z,9.55
2019-04-23T07:24:28.432Z,10.93
2019-04-23T07:27:03.570Z,12.63
2019-04-23T07:29:40.579Z,14.33
2019-04-23T07:34:31.803Z,13.25
2019-04-23T07:37:05.196Z,9.35
2019-04-23T07:39:59.002Z,11.35
2019-04-23T07:42:29.303Z,14.33
2019-04-23T07:45:24.052Z,11.78
2019-04-23T07:50:46.245Z,8.48
2019-04-23T07:55:48.556Z,12.63
2019-04-23T07:58:21.809Z,11.00
2019-04-23T08:00:45.199Z,12.73
2019-04-23T08:05:55.329Z,10.58
2019-04-23T08:08:12.130Z,8.78
2019-04-23T08:11:01.596Z,9.10
2019-04-23T08:13:27.600Z,13.45
2019-04-23T08:15:53.988Z,9.03
2019-04-23T08:23:44.010Z,9.78
2019-04-23T08:26:33.611Z,8.45
2019-04-23T08:29:06.184Z,11.38
2019-04-23T08:34:11.078Z,12.40
2019-04-23T08:36:34.503Z,11.57
2019-04-23T08:39:03.479Z,8.08
2019-04-23T08:44:07.026Z,9.48
2019-04-23T08:49:31.246Z,8.15
2019-04-23T08:52:04.121Z,9.93
2019-04-23T08:57:04.080Z,11.85
2019-04-23T09:02:18.939Z,9.60
2019-04-23T09:04:35.597Z,9.20
2019-04-23T09:07:04.505Z,11.12
2019-04-23T09:09:39.790Z,7.95
2019-04-23T09:11:58.019Z,9.50
2019-04-23T09:14:27.646Z,10.38
2019-04-23T09:17:04.845Z,9.65
2019-04-23T09:19:32.367Z,10.63
2019-04-23T09:22:08.960Z,10.63
2019-04-23T09:24:32.973Z,8.75
2019-04-23T09:27:05.563Z,9.00
2019-04-23T09:29:40.560Z,11.88
2019-04-23T09:32:22.258Z,8.78
2019-04-23T09:37:59.767Z,9.95
2019-04-23T09:41:11.508Z,10.90
2019-04-23T09:44:25.925Z,7.35
2019-04-23T09:47:00.661Z,7.50
2019-04-23T09:49:26.446Z,11.00
2019-04-23T09:52:06.074Z,10.28
2019-04-23T09:54:33.935Z,10.75
2019-04-23T09:56:52.287Z,7.40
2019-04-23T09:59:33.859Z,9.05
2019-04-23T10:01:51.223Z,10.82
2019-04-23T10:04:17.032Z,7.97
2019-04-23T10:06:37.284Z,10.23
2019-04-23T10:09:06.673Z,7.12
2019-04-23T10:11:35.088Z,7.10
2019-04-23T10:14:03.826Z,6.97
2019-04-23T10:16:34.329Z,11.20
2019-04-23T10:19:03.817Z,8.53
2019-04-23T10:21:33.398Z,9.95
2019-04-23T10:24:03.350Z,13.58
2019-04-23T10:26:32.511Z,11.10
2019-04-23T10:29:11.829Z,10.23
2019-04-23T10:31:41.956Z,9.15
2019-04-23T10:34:12.282Z,7.42
2019-04-23T10:36:42.378Z,5.95
2019-04-23T10:39:17.548Z,8.10
2019-04-23T10:41:45.985Z,8.00
2019-04-23T10:44:30.799Z,11.28
2019-04-23T10:53:29.986Z,10.25
2019-04-23T10:58:31.761Z,7.10
2019-04-23T11:00:59.833Z,9.55
2019-04-23T11:08:30.770Z,6.37
2019-04-23T11:11:07.941Z,8.03
2019-04-23T11:13:37.795Z,15.08
2019-04-23T11:16:47.295Z,9.53
2019-04-23T11:18:53.895Z,13.25
2019-04-23T11:21:13.743Z,8.23
2019-04-23T11:23:40.938Z,8.40
2019-04-23T11:26:13.879Z,9.63
2019-04-23T11:28:38.235Z,11.22
2019-04-23T11:31:24.600Z,7.33
2019-04-23T11:33:50.851Z,12.05
2019-04-23T11:36:43.632Z,7.55
2019-04-23T11:41:26.339Z,5.83
2019-04-23T11:43:46.518Z,11.83
2019-04-23T11:46:35.288Z,9.93
2019-04-23T11:49:20.318Z,6.30
2019-04-23T11:53:50.978Z,12.78
2019-04-23T11:56:47.234Z,10.93
2019-04-23T11:58:47.649Z,6.72
2019-04-23T12:01:47.627Z,10.90
2019-04-23T12:04:40.615Z,8.18
2019-04-23T12:07:09.607Z,7.78
2019-04-23T12:10:17.131Z,5.78
2019-04-23T12:15:07.369Z,6.47
2019-04-23T12:17:33.050Z,6.90
2019-04-23T12:20:12.276Z,13.10
2019-04-23T12:22:38.917Z,8.45
2019-04-23T12:25:19.890Z,9.88
2019-04-23T12:30:19.028Z,7.42
2019-04-23T12:32:48.061Z,14.28
2019-04-23T12:35:25.691Z,11.95
2019-04-23T12:38:01.334Z,8.65
2019-04-23T12:40:31.885Z,8.15
2019-04-23T12:43:02.670Z,11.65
2019-04-23T12:45:33.427Z,6.42
2019-04-23T12:48:31.398Z,9.03
2019-04-23T12:50:45.518Z,9.80
2019-04-23T12:53:26.598Z,10.35
2019-04-23T12:55:39.084Z,6.90
2019-04-23T12:58:21.952Z,10.93
2019-04-23T13:03:26.125Z,11.50
2019-04-23T13:05:31.480Z,7.30
2019-04-23T13:08:16.308Z,8.18
2019-04-23T13:10:40.011Z,8.43
2019-04-23T13:13:19.216Z,8.13
2019-04-23T13:15:40.606Z,9.48
2019-04-23T13:18:15.353Z,15.80
2019-04-23T13:20:39.957Z,9.00
2019-04-23T13:23:19.796Z,7.28
2019-04-23T13:28:33.719Z,8.70
2019-04-23T13:31:06.454Z,8.63
2019-04-23T13:33:40.674Z,10.95
2019-04-23T13:36:11.654Z,5.15
2019-04-23T13:43:47.894Z,11.73
2019-04-23T13:46:14.108Z,7.92
2019-04-23T13:48:40.043Z,10.38
2019-04-23T13:51:32.700Z,13.00
2019-04-23T13:56:25.265Z,18.95
2019-04-23T14:01:25.728Z,9.70
2019-04-23T14:03:50.642Z,11.03
2019-04-23T14:08:53.680Z,12.73
2019-04-23T14:11:23.389Z,18.62
2019-04-23T14:13:55.090Z,8.15
2019-04-23T14:21:24.992Z,13.88
2019-04-23T14:31:37.099Z,15.03
2019-04-23T14:36:27.026Z,10.58
2019-04-23T14:38:57.347Z,12.78
2019-04-23T14:41:26.307Z,8.15
2019-04-23T14:44:08.222Z,9.08
2019-04-23T14:49:30.864Z,6.67
2019-04-23T14:51:47.495Z,12.78
2019-04-23T14:54:15.837Z,13.08
2019-04-23T14:56:46.264Z,15.68
2019-04-23T15:01:40.299Z,8.90
2019-04-23T15:04:13.273Z,7.83
2019-04-23T15:06:50.839Z,13.20
2019-04-23T15:09:20.921Z,15.13
2019-04-23T15:11:54.660Z,16.25
2019-04-23T15:14:17.590Z,5.92
2019-04-23T15:16:54.414Z,14.07
2019-04-23T15:22:17.049Z,16.42
2019-04-23T15:24:50.177Z,7.47
2019-04-23T15:29:32.886Z,12.05
2019-04-23T15:34:44.957Z,18.40
2019-04-23T15:39:47.828Z,12.37
2019-04-23T15:42:16.625Z,13.98
2019-04-23T15:44:50.169Z,16.52
2019-04-23T15:47:20.195Z,14.45
2019-04-23T15:49:53.185Z,22.13
2019-04-23T15:52:22.882Z,13.25
2019-04-23T15:54:50.570Z,23.62
2019-04-23T15:57:28.906Z,13.03
2019-04-23T15:59:52.010Z,19.50
2019-04-23T16:01:50.414Z,20.62
2019-04-23T16:04:20.600Z,22.82
2019-04-23T16:06:49.778Z,15.85
2019-04-23T16:09:49.573Z,21.82
2019-04-23T16:12:13.276Z,13.43
2019-04-23T16:14:56.774Z,20.08
2019-04-23T16:17:20.903Z,24.43
2019-04-23T16:20:31.898Z,13.25
2019-04-23T16:22:51.098Z,13.18
2019-04-23T16:25:22.058Z,13.43
2019-04-23T16:30:24.628Z,18.85
2019-04-23T16:33:10.422Z,15.43
2019-04-23T16:35:51.330Z,15.00
2019-04-23T16:38:23.269Z,17.23
2019-04-23T16:40:58.913Z,14.73
2019-04-23T16:43:13.208Z,17.07
2019-04-23T16:48:36.569Z,12.80
2019-04-23T16:51:11.105Z,24.65
2019-04-23T16:53:24.133Z,13.65
2019-04-23T16:55:56.531Z,16.37
2019-04-23T17:01:03.385Z,25.10
2019-04-23T17:03:26.193Z,18.70
2019-04-23T17:05:59.436Z,12.10
2019-04-23T17:11:06.727Z,16.25
2019-04-23T17:13:33.926Z,18.60
2019-04-23T17:18:31.339Z,17.42
2019-04-23T17:20:56.631Z,17.37
2019-04-23T17:23:52.322Z,15.93
2019-04-23T17:26:06.616Z,22.27
2019-04-23T17:31:28.153Z,24.15
2019-04-23T17:39:07.862Z,21.70
2019-04-23T17:42:05.203Z,16.25
2019-04-23T17:44:38.771Z,17.95
2019-04-23T17:46:57.453Z,17.40
2019-04-23T17:49:36.752Z,22.90
2019-04-23T17:52:03.120Z,19.12
2019-04-23T17:57:10.711Z,16.00
2019-04-23T18:00:08.444Z,14.53
2019-04-23T18:02:51.654Z,12.65
2019-04-23T18:07:32.236Z,15.70
2019-04-23T18:10:06.435Z,17.10
2019-04-23T18:12:37.612Z,12.70
2019-04-23T18:14:57.005Z,13.68
2019-04-23T18:17:26.641Z,14.87
2019-04-23T18:20:17.468Z,12.70
2019-04-23T18:22:56.795Z,14.30
2019-04-23T18:25:30.825Z,13.80
2019-04-23T18:28:03.540Z,12.82
2019-04-23T18:34:00.609Z,11.20
2019-04-23T18:35:49.589Z,13.45
2019-04-23T18:38:31.930Z,12.82
2019-04-23T18:41:02.459Z,14.80
2019-04-23T18:46:18.538Z,14.07
2019-04-23T18:53:40.686Z,22.25
2019-04-23T18:58:44.746Z,13.68
2019-04-23T19:01:08.696Z,18.07
2019-04-23T19:06:32.687Z,15.00
2019-04-23T19:09:23.503Z,11.90
2019-04-23T19:14:30.575Z,14.28
2019-04-23T19:17:09.012Z,13.28
2019-04-23T19:22:15.011Z,12.65
2019-04-23T19:24:27.827Z,19.57
2019-04-23T19:27:10.771Z,10.32
2019-04-23T19:29:37.658Z,10.82
2019-04-23T19:34:35.550Z,12.10
2019-04-23T19:37:01.297Z,14.18
2019-04-23T19:39:29.595Z,14.98
2019-04-23T19:44:38.784Z,11.95
2019-04-23T19:49:37.004Z,8.23
2019-04-23T19:57:17.857Z,14.20
2019-04-23T20:02:08.036Z,10.13
2019-04-23T20:12:05.949Z,16.85
2019-04-23T20:14:47.298Z,11.22
2019-04-23T20:17:31.061Z,16.90
2019-04-23T20:22:15.901Z,13.62
2019-04-23T20:24:58.008Z,11.48
2019-04-23T20:27:25.858Z,14.63
2019-04-23T20:35:11.451Z,13.93
2019-04-23T20:38:17.271Z,10.03
2019-04-23T20:40:23.513Z,10.80
2019-04-23T20:42:53.575Z,10.28
2019-04-23T20:45:40.934Z,13.80
2019-04-23T20:47:54.216Z,10.15
2019-04-23T20:50:20.842Z,15.03
2019-04-23T20:52:49.679Z,11.55
2019-04-23T20:55:29.530Z,11.48
2019-04-23T20:58:09.525Z,14.40
2019-04-23T21:00:59.162Z,13.80
2019-04-23T21:05:51.957Z,15.58
2019-04-23T21:08:22.352Z,12.80
2019-04-23T21:11:08.053Z,13.38
2019-04-23T21:13:43.043Z,9.50
2019-04-23T21:15:52.709Z,14.10
2019-04-23T21:18:31.552Z,9.53
2019-04-23T21:20:56.871Z,12.03
2019-04-23T21:23:32.198Z,12.40
2019-04-23T21:25:52.511Z,11.08
2019-04-23T21:28:40.225Z,10.23
2019-04-23T21:33:49.863Z,10.85
2019-04-23T21:39:38.625Z,11.85
2019-04-23T21:44:38.570Z,12.63
2019-04-23T21:47:25.653Z,11.73
2019-04-23T21:52:20.797Z,15.28
2019-04-23T21:54:42.905Z,10.60
2019-04-23T21:57:12.131Z,16.25
2019-04-23T21:59:46.744Z,12.20
2019-04-23T22:02:16.873Z,12.18
2019-04-23T22:04:49.997Z,13.22
2019-04-23T22:07:16.420Z,13.80
2019-04-23T22:09:51.900Z,12.00
2019-04-23T22:12:19.610Z,16.55
2019-04-23T22:14:45.355Z,13.83
2019-04-23T22:17:16.488Z,14.38
2019-04-23T22:20:00.525Z,13.00
2019-04-23T22:22:07.733Z,9.90
2019-04-23T22:24:49.965Z,13.85
2019-04-23T22:27:32.408Z,11.97
2019-04-23T22:29:45.077Z,15.80
2019-04-23T22:32:21.596Z,12.95
2019-04-23T22:34:57.379Z,14.03
2019-04-23T22:39:52.500Z,13.68
2019-04-23T22:45:05.592Z,13.65
2019-04-23T22:47:25.986Z,12.45
2019-04-23T22:50:02.676Z,10.55
2019-04-23T22:55:02.024Z,10.50
2019-04-23T22:57:45.292Z,12.88
2019-04-23T23:00:12.967Z,12.58
2019-04-23T23:05:39.212Z,10.70
2019-04-23T23:08:11.461Z,13.20
2019-04-23T23:10:28.366Z,12.90
2019-04-23T23:15:22.734Z,14.07
2019-04-23T23:23:06.127Z,14.15
2019-04-23T23:25:24.647Z,13.10
2019-04-23T23:28:06.840Z,11.03
2019-04-23T23:30:31.429Z,14.23
2019-04-23T23:33:02.564Z,13.32
2019-04-23T23:35:29.769Z,13.32
2019-04-23T23:38:03.775Z,16.25
2019-04-23T23:40:25.537Z,13.70
2019-04-23T23:43:15.801Z,9.15
2019-04-23T23:45:35.066Z,12.35
2019-04-23T23:47:59.211Z,14.03
2019-04-23T23:50:36.505Z,12.85
2019-04-23T23:55:46.889Z,16.15
2019-04-23T23:58:19.497Z,14.78
